createdAt,value
2023-01-03T06:47:44.139Z,0.857143
2023-01-03T06:48:44.167Z,0.857143
2023-01-03T06:49:44.244Z,0.857143
2023-01-03T06:50:44.283Z,1.71429
2023-01-03T06:51:44.289Z,1.71429
2023-01-03T06:52:44.336Z,2.5
2023-01-03T06:53:44.373Z,2.5
2023-01-03T06:54:44.380Z,3.35714
2023-01-03T06:55:44.418Z,4.21429
2023-01-03T06:56:44.482Z,5
2023-01-03T06:57:44.496Z,5.85714
2023-01-03T06:58:44.520Z,6.71429
2023-01-03T06:59:44.554Z,7.5
2023-01-03T07:00:44.643Z,8.35714
2023-01-03T07:01:44.773Z,10
2023-01-03T07:02:44.912Z,11.7143
2023-01-03T07:03:44.734Z,13.3571
2023-01-03T07:04:44.754Z,15
2023-01-03T07:05:44.753Z,16.7143
2023-01-03T07:06:44.787Z,18.3571
2023-01-03T07:07:44.842Z,20.8571
2023-01-03T07:08:48.412Z,23.3571
2023-01-03T07:09:44.906Z,25.8571
2023-01-03T07:10:44.927Z,28.3571
2023-01-03T07:11:44.986Z,30.8571
2023-01-03T07:12:44.996Z,34.2143
2023-01-03T07:13:45.034Z,37.5
2023-01-03T07:14:45.086Z,40.8571
2023-01-03T07:15:45.141Z,44.2143
2023-01-03T07:16:45.153Z,48.3571
2023-01-03T07:17:45.173Z,53.3571
2023-01-03T07:18:52.652Z,55.8571
2023-01-03T07:19:45.275Z,60
2023-01-03T07:20:45.297Z,65
2023-01-03T07:21:45.316Z,69.2143
2023-01-03T07:22:45.333Z,74.2143
2023-01-03T07:23:45.373Z,79.2143
2023-01-03T07:24:45.415Z,84.2143
2023-01-03T07:25:45.478Z,89.2143
2023-01-03T07:26:45.489Z,94.2143
2023-01-03T07:27:45.536Z,100
2023-01-03T07:28:45.555Z,106.714
2023-01-03T07:29:45.582Z,112.5
2023-01-03T07:30:45.774Z,118.357
2023-01-03T07:31:45.714Z,125
2023-01-03T07:32:45.701Z,132.5
2023-01-03T07:33:45.728Z,140
2023-01-03T07:34:45.810Z,146.714
2023-01-03T07:35:45.790Z,152.5
2023-01-03T07:36:45.800Z,160.857
2023-01-03T07:37:45.850Z,168.357
2023-01-03T07:38:45.878Z,177.5
2023-01-03T07:39:45.931Z,186.714
2023-01-03T07:40:45.959Z,193.357
2023-01-03T07:41:45.992Z,199.214
2023-01-03T07:42:46.039Z,204.214
2023-01-03T07:43:46.070Z,210
2023-01-03T07:44:46.095Z,217.5
2023-01-03T07:45:46.128Z,225.857
2023-01-03T07:46:46.241Z,233.357
2023-01-03T07:47:46.249Z,239.214
2023-01-03T07:48:46.229Z,245.857
2023-01-03T07:49:46.261Z,251.714
2023-01-03T07:50:46.286Z,258.357
2023-01-03T07:51:46.329Z,264.214
2023-01-03T07:52:46.353Z,270.857
2023-01-03T07:53:46.384Z,277.5
2023-01-03T07:54:46.436Z,283.357
2023-01-03T07:55:46.455Z,291.714
2023-01-03T07:56:46.505Z,301.714
2023-01-03T07:57:46.535Z,323.357
2023-01-03T07:58:46.571Z,355
2023-01-03T07:59:46.616Z,376.714
2023-01-03T08:00:46.658Z,390.857
2023-01-03T08:01:46.782Z,388.357
2023-01-03T08:02:46.792Z,389.214
2023-01-03T08:03:46.740Z,390
2023-01-03T08:04:46.826Z,391.714
2023-01-03T08:05:46.834Z,404.214
2023-01-03T08:06:46.852Z,400
2023-01-03T08:07:46.898Z,432.5
2023-01-03T08:08:46.916Z,506.714
2023-01-03T08:09:46.956Z,497.5
2023-01-03T08:10:46.990Z,435
2023-01-03T08:11:47.012Z,431.714
2023-01-03T08:12:47.063Z,474.214
2023-01-03T08:13:47.091Z,543.357
2023-01-03T08:14:47.120Z,556.714
2023-01-03T08:15:47.188Z,528.357
2023-01-03T08:16:47.187Z,586.714
2023-01-03T08:17:47.231Z,613.357
2023-01-03T08:18:47.259Z,548.357
2023-01-03T08:19:47.303Z,490
2023-01-03T08:20:47.322Z,512.5
2023-01-03T08:21:47.365Z,589.214
2023-01-03T08:22:47.425Z,642.5
2023-01-03T08:23:47.418Z,634.214
2023-01-03T08:24:47.480Z,604.214
2023-01-03T08:25:47.478Z,545
2023-01-03T08:26:47.533Z,514.214
2023-01-03T08:27:50.388Z,509.214
2023-01-03T08:28:47.584Z,519.214
2023-01-03T08:29:47.623Z,545.857
2023-01-03T08:30:47.667Z,564.214
2023-01-03T08:31:47.820Z,565.857
2023-01-03T08:32:47.719Z,545.857
2023-01-03T08:33:47.760Z,510
2023-01-03T08:34:47.791Z,483.357
2023-01-03T08:35:47.850Z,476.714
2023-01-03T08:36:47.859Z,480
2023-01-03T08:37:47.880Z,483.357
2023-01-03T08:38:47.920Z,500.857
2023-01-03T08:39:47.962Z,609.214
2023-01-03T08:40:47.993Z,730.857
2023-01-03T08:41:48.027Z,790.857
2023-01-03T08:42:48.108Z,922.5
2023-01-03T08:43:48.100Z,1042.5
2023-01-03T08:44:48.120Z,1067.5
2023-01-03T08:45:48.162Z,1111.71
2023-01-03T08:46:48.267Z,1164.21
2023-01-03T08:47:48.209Z,1147.5
2023-01-03T08:48:48.357Z,1221.71
2023-01-03T08:49:48.284Z,1235.86
2023-01-03T08:50:48.331Z,970
2023-01-03T08:51:48.360Z,706.714
2023-01-03T08:52:48.400Z,922.5
2023-01-03T08:53:48.437Z,1088.36
2023-01-03T08:54:48.454Z,1062.5
2023-01-03T08:55:48.491Z,1156.71
2023-01-03T08:56:48.557Z,1220.86
2023-01-03T08:57:48.567Z,1145
2023-01-03T08:58:48.604Z,1108.36
2023-01-03T08:59:48.628Z,1139.21
2023-01-03T09:00:48.653Z,1187.5
2023-01-03T09:01:48.907Z,1130.86
2023-01-03T09:02:48.911Z,1067.5
2023-01-03T09:03:48.936Z,1028.36
2023-01-03T09:04:48.809Z,882.5
2023-01-03T09:05:48.822Z,823.357
2023-01-03T09:06:48.872Z,865.857
2023-01-03T09:07:48.918Z,847.5
2023-01-03T09:08:48.929Z,800.857
2023-01-03T09:09:48.955Z,735
2023-01-03T09:10:48.977Z,690.857
2023-01-03T09:11:49.020Z,680.857
2023-01-03T09:12:49.069Z,691.714
2023-01-03T09:13:49.090Z,694.214
2023-01-03T09:14:49.119Z,681.714
2023-01-03T09:15:49.224Z,673.357
2023-01-03T09:16:49.732Z,666.714
2023-01-03T09:17:49.340Z,664.214
2023-01-03T09:18:49.255Z,661.714
2023-01-03T09:19:49.285Z,651.714
2023-01-03T09:20:49.348Z,643.357
2023-01-03T09:21:49.383Z,648.357
2023-01-03T09:22:49.393Z,645.857
2023-01-03T09:23:49.447Z,643.357
2023-01-03T09:24:49.443Z,633.357
2023-01-03T09:25:49.484Z,628.357
2023-01-03T09:26:54.482Z,623.357
2023-01-03T09:27:49.580Z,615.857
2023-01-03T09:28:49.595Z,609.214
2023-01-03T09:29:49.651Z,604.214
2023-01-03T09:30:49.668Z,600
2023-01-03T09:31:51.531Z,596.714
2023-01-03T09:32:49.753Z,597.5
2023-01-03T09:33:49.771Z,600
2023-01-03T09:34:49.820Z,602.5
2023-01-03T09:35:49.837Z,604.214
2023-01-03T09:36:49.872Z,604.214
2023-01-03T09:37:49.897Z,605.857
2023-01-03T09:38:49.938Z,600
2023-01-03T09:39:49.976Z,586.714
2023-01-03T09:40:50.020Z,580
2023-01-03T09:41:50.025Z,585
2023-01-03T09:42:50.082Z,597.5
2023-01-03T09:43:50.111Z,602.5
2023-01-03T09:44:50.129Z,605
2023-01-03T09:45:50.166Z,620
2023-01-03T09:46:50.271Z,599.214
2023-01-03T09:47:50.218Z,599.214
2023-01-03T09:48:50.291Z,598.357
2023-01-03T09:50:18.885Z,605
2023-01-03T09:51:17.090Z,604.214
2023-01-03T09:51:50.471Z,615.857
2023-01-03T09:52:50.382Z,622.5
2023-01-03T09:53:50.414Z,629.214
2023-01-03T09:54:50.449Z,620
2023-01-03T09:55:50.494Z,620
2023-01-03T09:56:50.574Z,634.214
2023-01-03T09:57:50.561Z,645
2023-01-03T09:58:50.602Z,628.357
2023-01-03T09:59:50.617Z,648.357
2023-01-03T10:00:50.732Z,625.857
2023-01-03T10:01:50.968Z,622.5
2023-01-03T10:02:50.913Z,625.857
2023-01-03T10:03:52.162Z,655.857
2023-01-03T10:04:50.795Z,664.214
2023-01-03T10:05:50.817Z,675
2023-01-03T10:06:50.921Z,697.5
2023-01-03T10:07:50.900Z,687.5
2023-01-03T10:08:50.928Z,752.5
2023-01-03T10:09:50.956Z,752.5
2023-01-03T10:10:50.983Z,861.714
2023-01-03T10:11:51.022Z,978.357
2023-01-03T10:12:51.082Z,1010.86
2023-01-03T10:13:51.088Z,894.214
2023-01-03T10:14:51.172Z,909.214
2023-01-03T10:15:51.149Z,870.857
2023-01-03T10:16:51.244Z,728.357
2023-01-03T10:17:51.209Z,775
2023-01-03T10:18:51.243Z,898.357
2023-01-03T10:19:51.297Z,1124.21
2023-01-03T10:20:51.336Z,1133.36
2023-01-03T10:21:51.352Z,1104.21
2023-01-03T10:22:51.381Z,955
2023-01-03T10:23:51.412Z,964.214
2023-01-03T10:24:51.438Z,751.714
2023-01-03T10:25:51.478Z,777.5
2023-01-03T10:26:51.537Z,982.5
2023-01-03T10:27:51.540Z,1044.21
2023-01-03T10:28:51.575Z,1105
2023-01-03T10:29:51.612Z,1107.5
2023-01-03T10:30:58.314Z,1082.5
2023-01-03T10:31:51.714Z,1110.86
2023-01-03T10:32:51.753Z,1120
2023-01-03T10:33:51.738Z,1168.36
2023-01-03T10:34:51.768Z,1091.71
2023-01-03T10:35:51.799Z,1066.71
2023-01-03T10:36:51.842Z,974.214
2023-01-03T10:37:51.917Z,957.5
2023-01-03T10:38:53.216Z,892.5
2023-01-03T10:39:51.937Z,970
2023-01-03T10:40:51.981Z,795
2023-01-03T10:41:52.013Z,690
2023-01-03T10:42:52.046Z,631.714
2023-01-03T10:43:59.105Z,593.357
2023-01-03T10:44:59.962Z,645
2023-01-03T10:46:00.027Z,693.357
2023-01-03T10:47:00.059Z,1060
2023-01-03T10:48:00.071Z,1095
2023-01-03T10:49:26.678Z,1046.71
2023-01-03T10:50:00.141Z,1003.36
2023-01-03T10:51:00.166Z,955.857
2023-01-03T10:52:00.185Z,1080
2023-01-03T10:53:00.220Z,1022.5
2023-01-03T10:54:00.241Z,1000.86
2023-01-03T10:55:00.294Z,1097.5
2023-01-03T10:56:00.316Z,983.357
2023-01-03T10:57:00.333Z,953.357
2023-01-03T10:58:00.374Z,866.714
2023-01-03T10:59:00.409Z,939.214
2023-01-03T11:00:00.464Z,865
2023-01-03T11:01:00.578Z,978.357
2023-01-03T11:02:00.742Z,1003.36
2023-01-03T11:03:00.698Z,1216.71
2023-01-03T11:04:00.644Z,1260.86
2023-01-03T11:05:00.630Z,1193.36
2023-01-03T11:06:00.704Z,1330
2023-01-03T11:07:00.705Z,1311.71
2023-01-03T11:08:00.723Z,976.714
2023-01-03T11:09:00.769Z,927.5
2023-01-03T11:10:00.793Z,850
2023-01-03T11:11:00.885Z,939.214
2023-01-03T11:12:00.861Z,823.357
2023-01-03T11:13:00.904Z,835
2023-01-03T11:14:00.926Z,960
2023-01-03T11:15:01.005Z,1090.86
2023-01-03T11:16:01.020Z,1105
2023-01-03T11:17:01.155Z,1026.71
2023-01-03T11:18:01.069Z,1153.36
2023-01-03T11:19:01.099Z,1046.71
2023-01-03T11:20:01.141Z,1221.71
2023-01-03T11:21:01.173Z,1075
2023-01-03T11:22:01.219Z,1207.5
2023-01-03T11:23:01.251Z,1240
2023-01-03T11:24:01.279Z,1221.71
2023-01-03T11:25:01.328Z,1086.71
2023-01-03T11:26:01.364Z,835
2023-01-03T11:27:01.394Z,882.5
2023-01-03T11:28:01.422Z,984.214
2023-01-03T11:29:01.492Z,1091.71
2023-01-03T11:30:01.486Z,938.357
2023-01-03T11:31:01.511Z,1019.21
2023-01-03T11:32:01.633Z,1118.36
2023-01-03T11:33:01.582Z,1072.5
2023-01-03T11:34:01.619Z,1029.21
2023-01-03T11:35:24.867Z,920.857
2023-01-03T11:36:01.693Z,1104.21
2023-01-03T11:37:01.734Z,1005
2023-01-03T11:38:01.770Z,867.5
2023-01-03T11:39:01.804Z,985.857
2023-01-03T11:40:01.827Z,1050.86
2023-01-03T11:41:01.852Z,1075
2023-01-03T11:42:01.904Z,1292.5
2023-01-03T11:43:01.937Z,1241.71
2023-01-03T11:44:01.977Z,1230
2023-01-03T11:45:02.031Z,1242.5
2023-01-03T11:46:02.122Z,1287.5
2023-01-03T11:47:02.069Z,1383.36
2023-01-03T11:48:02.103Z,1046.71
2023-01-03T11:49:02.139Z,818.357
2023-01-03T11:50:02.181Z,761.714
2023-01-03T11:51:02.232Z,701.714
2023-01-03T11:52:02.255Z,695
2023-01-03T11:53:02.303Z,752.5
2023-01-03T11:54:02.325Z,769.214
2023-01-03T11:55:02.391Z,839.214
2023-01-03T11:56:02.400Z,828.357
2023-01-03T11:57:02.414Z,725
2023-01-03T11:58:02.501Z,722.5
2023-01-03T11:59:02.487Z,1330.86
2023-01-03T12:00:02.563Z,1636.71
2023-01-03T12:01:02.569Z,1321.71
2023-01-03T12:02:02.673Z,1246.71
2023-01-03T12:03:02.795Z,1170
2023-01-03T12:04:02.763Z,1068.36
2023-01-03T12:05:02.700Z,1137.5
2023-01-03T12:06:02.735Z,1048.36
2023-01-03T12:07:37.065Z,986.714
2023-01-03T12:08:02.797Z,960
2023-01-03T12:09:02.833Z,907.5
2023-01-03T12:10:02.859Z,825
2023-01-03T12:11:02.877Z,975
2023-01-03T12:12:02.919Z,1083.36
2023-01-03T12:13:02.962Z,943.357
2023-01-03T12:14:02.987Z,983.357
2023-01-03T12:15:03.045Z,982.5
2023-01-03T12:16:03.172Z,994.214
2023-01-03T12:17:03.105Z,1027.5
2023-01-03T12:18:03.134Z,1018.36
2023-01-03T12:19:08.427Z,1055
2023-01-03T12:20:03.218Z,1013.36
2023-01-03T12:21:03.220Z,950
2023-01-03T12:22:03.264Z,980
2023-01-03T12:23:03.302Z,877.5
2023-01-03T12:24:03.331Z,815
2023-01-03T12:25:05.694Z,756.714
2023-01-03T12:26:03.395Z,684.214
2023-01-03T12:27:03.432Z,706.714
2023-01-03T12:28:03.480Z,682.5
2023-01-03T12:29:03.492Z,725
2023-01-03T12:30:03.528Z,750
2023-01-03T12:31:03.610Z,933.357
2023-01-03T12:32:03.691Z,857.5
2023-01-03T12:33:03.646Z,1110.86
2023-01-03T12:34:03.691Z,1060
2023-01-03T12:35:03.711Z,991.714
2023-01-03T12:36:03.747Z,1040
2023-01-03T12:37:03.791Z,1110
2023-01-03T12:38:03.820Z,995.857
2023-01-03T12:39:03.888Z,1022.5
2023-01-03T12:40:03.907Z,1035.86
2023-01-03T12:41:03.913Z,1068.36
2023-01-03T12:42:03.963Z,1023.36
2023-01-03T12:43:04.003Z,1032.5
2023-01-03T12:44:04.023Z,1066.71
2023-01-03T12:45:04.052Z,771.714
2023-01-03T12:46:10.304Z,913.357
2023-01-03T12:47:04.144Z,980.857
2023-01-03T12:48:04.156Z,1052.5
2023-01-03T12:49:04.199Z,1020.86
2023-01-03T12:50:04.224Z,960
2023-01-03T12:51:04.276Z,933.357
2023-01-03T12:52:04.280Z,898.357
2023-01-03T12:53:04.363Z,938.357
2023-01-03T12:54:04.415Z,827.5
2023-01-03T12:55:04.397Z,891.714
2023-01-03T12:56:04.438Z,875
2023-01-03T12:57:04.456Z,756.714
2023-01-03T12:58:04.489Z,794.214
2023-01-03T12:59:04.533Z,845
2023-01-03T13:00:04.554Z,763.357
2023-01-03T13:01:04.601Z,831.714
2023-01-03T13:02:04.809Z,876.714
2023-01-03T13:03:04.922Z,745
2023-01-03T13:04:04.784Z,937.5
2023-01-03T13:05:04.760Z,766.714
2023-01-03T13:06:04.767Z,678.357
2023-01-03T13:07:04.786Z,795
2023-01-03T13:08:04.825Z,781.714
2023-01-03T13:09:04.860Z,895
2023-01-03T13:10:04.938Z,1081.71
2023-01-03T13:11:04.937Z,978.357
2023-01-03T13:12:04.970Z,990
2023-01-03T13:13:05.044Z,955
2023-01-03T13:14:05.022Z,890.857
2023-01-03T13:15:05.065Z,775.857
2023-01-03T13:16:05.125Z,698.357
2023-01-03T13:17:05.186Z,577.5
2023-01-03T13:18:05.192Z,535
2023-01-03T13:19:05.195Z,519.214
2023-01-03T13:20:05.221Z,515.857
2023-01-03T13:21:05.259Z,510.857
2023-01-03T13:22:05.295Z,514.214
2023-01-03T13:23:05.324Z,510
2023-01-03T13:24:05.390Z,504.214
2023-01-03T13:25:05.400Z,500
2023-01-03T13:26:05.465Z,497.5
2023-01-03T13:27:05.479Z,495.857
2023-01-03T13:28:05.520Z,495.857
2023-01-03T13:29:05.584Z,493.357
2023-01-03T13:30:05.559Z,490.857
2023-01-03T13:31:05.630Z,487.5
2023-01-03T13:32:05.643Z,485.857
2023-01-03T13:33:05.687Z,483.357
2023-01-03T13:34:05.722Z,480
2023-01-03T13:35:05.765Z,473.357
2023-01-03T13:36:05.771Z,473.357
2023-01-03T13:37:05.809Z,468.357
2023-01-03T13:38:05.843Z,465
2023-01-03T13:39:05.866Z,460
2023-01-03T13:40:05.895Z,461.714
2023-01-03T13:41:18.871Z,455
2023-01-03T13:42:05.960Z,460
2023-01-03T13:43:05.996Z,453.357
2023-01-03T13:44:06.021Z,452.5
2023-01-03T13:45:06.080Z,449.214
2023-01-03T13:46:06.124Z,445
2023-01-03T13:47:06.173Z,441.714
2023-01-03T13:48:06.158Z,438.357
2023-01-03T13:49:06.189Z,434.214
2023-01-03T13:50:06.223Z,430
2023-01-03T13:51:06.259Z,426.714
2023-01-03T13:52:06.291Z,422.5
2023-01-03T13:53:06.311Z,418.357
2023-01-03T13:54:06.415Z,414.214
2023-01-03T13:55:06.395Z,410.857
2023-01-03T13:56:06.419Z,407.5
2023-01-03T13:57:06.458Z,403.357
2023-01-03T13:58:06.509Z,401.714
2023-01-03T13:59:06.528Z,398.357
2023-01-03T14:00:06.579Z,394.214
2023-01-03T14:01:06.635Z,390
2023-01-03T14:02:06.828Z,385
2023-01-03T14:03:06.823Z,380
2023-01-03T14:04:06.819Z,375.857
2023-01-03T14:05:06.741Z,370.857
2023-01-03T14:06:06.771Z,365.857
2023-01-03T14:07:06.812Z,362.5
2023-01-03T14:08:06.837Z,358.357
2023-01-03T14:09:06.871Z,354.214
2023-01-03T14:10:07.022Z,350
2023-01-03T14:11:06.950Z,345.857
2023-01-03T14:12:06.987Z,340.857
2023-01-03T14:13:07.013Z,337.5
2023-01-03T14:14:07.061Z,333.357
2023-01-03T14:15:15.585Z,328.357
2023-01-03T14:16:07.212Z,323.357
2023-01-03T14:17:07.167Z,317.5
2023-01-03T14:18:07.189Z,312.5
2023-01-03T14:19:07.234Z,307.5
2023-01-03T14:20:07.295Z,302.5
2023-01-03T14:21:13.953Z,296.714
2023-01-03T14:22:27.465Z,292.5
2023-01-03T14:23:39.614Z,287.5
2023-01-03T14:24:07.426Z,282.5
2023-01-03T14:25:07.455Z,277.5
2023-01-03T14:26:07.519Z,273.357
2023-01-03T14:27:11.568Z,268.357
2023-01-03T14:28:07.562Z,262.5
2023-01-03T14:29:07.584Z,256.714
2023-01-03T14:30:07.617Z,250.857
2023-01-03T14:31:07.725Z,245.857
2023-01-03T14:32:07.682Z,240
2023-01-03T14:33:07.736Z,235
2023-01-03T14:34:07.751Z,229.214
2023-01-03T14:35:07.796Z,223.357
2023-01-03T14:36:07.864Z,218.357
2023-01-03T14:37:07.899Z,213.357
2023-01-03T14:38:07.886Z,206.714
2023-01-03T14:39:07.941Z,201.714
2023-01-03T14:40:08.003Z,195
2023-01-03T14:41:08.000Z,188.357
2023-01-03T14:42:08.044Z,181.714
2023-01-03T14:43:08.078Z,175.857
2023-01-03T14:44:08.122Z,170
2023-01-03T14:45:08.136Z,164.214
2023-01-03T14:46:08.164Z,158.357
2023-01-03T14:47:08.318Z,152.5
2023-01-03T14:48:08.236Z,146.714
2023-01-03T14:49:08.275Z,140.857
2023-01-03T14:50:08.310Z,135
2023-01-03T14:51:08.340Z,130
2023-01-03T14:52:08.413Z,125
2023-01-03T14:53:08.412Z,119.214
2023-01-03T14:54:08.449Z,115
2023-01-03T14:55:08.479Z,110
2023-01-03T14:56:08.504Z,103.357
2023-01-03T14:57:08.539Z,99.2143
2023-01-03T14:58:08.574Z,92.5
2023-01-03T14:59:08.609Z,85.8571
2023-01-03T15:00:08.646Z,80.8571
2023-01-03T15:01:08.791Z,75.8571
2023-01-03T15:02:08.936Z,70
2023-01-03T15:03:09.002Z,65.8571
2023-01-03T15:04:08.804Z,60.8571
2023-01-03T15:05:08.828Z,56.7143
2023-01-03T15:06:08.858Z,53.3571
2023-01-03T15:07:13.433Z,48.3571
2023-01-03T15:08:08.926Z,45
2023-01-03T15:09:08.961Z,40.8571
2023-01-03T15:10:08.990Z,37.5
2023-01-03T15:11:09.114Z,34.2143
2023-01-03T15:12:09.059Z,30.8571
2023-01-03T15:13:09.083Z,27.5
2023-01-03T15:14:09.114Z,25
2023-01-03T15:15:09.154Z,22.5
2023-01-03T15:16:09.194Z,20
2023-01-03T15:17:09.231Z,17.5
2023-01-03T15:18:10.019Z,15.8571
2023-01-03T15:19:09.304Z,13.3571
2023-01-03T15:20:09.346Z,11.7143
2023-01-03T15:21:09.380Z,10.8571
2023-01-03T15:22:09.415Z,9.21429
2023-01-03T15:23:09.455Z,7.5
2023-01-03T15:24:09.472Z,6.71429
2023-01-03T15:25:09.514Z,5.85714
2023-01-03T15:26:09.568Z,5
2023-01-03T15:27:09.597Z,4.21429
2023-01-03T15:28:09.627Z,3.35714
2023-01-03T15:29:09.655Z,2.5
2023-01-03T15:30:14.244Z,2.5
2023-01-03T15:31:09.736Z,1.71429
2023-01-03T15:32:09.851Z,1.71429
2023-01-03T15:33:09.801Z,0.857143
2023-01-03T15:34:09.846Z,0.857143
